Time;durP1;ratioP1;P1;durP2;ratioP2;P2;SDS_P1;SDS_P2;PMS_P1;PMS_P2;Temp;Humidity;BMP_temperature;BMP_pressure;BME280_temperature;BME280_humidity;BME280_pressure;Samples;Min_cycle;Max_cycle;Signal;HPM_P1;HPM_P2
2022/06/23 00:01:37;;;;;;;3.15;1.92;;;;;;;17.83;68.51;98623.59;1657427;85;21434;-65
2022/06/23 00:04:04;;;;;;;5.62;1.80;;;;;;;17.87;68.51;98627.69;1660838;84;21439;-65
2022/06/23 00:06:36;;;;;;;3.20;1.63;;;;;;;17.86;68.44;98632.17;1666231;85;21029;-65
2022/06/23 00:09:38;;;;;;;2.95;1.70;;;;;;;17.83;68.44;98623.59;1664554;85;21501;-65
2022/06/23 00:15:05;;;;;;;5.50;1.70;;;;;;;17.27;71.81;98636.89;1750413;79;23347;-63
2022/06/23 00:17:36;;;;;;;3.12;2.08;;;;;;;17.72;69.25;98632.52;1739538;80;21543;-65
2022/06/23 00:20:11;;;;;;;5.17;1.77;;;;;;;17.75;69.05;98636.73;1731828;81;21862;-64
2022/06/23 00:22:40;;;;;;;3.58;1.98;;;;;;;17.73;68.91;98629.39;1722491;81;21094;-65
2022/06/23 00:25:08;;;;;;;3.77;1.77;;;;;;;17.71;69.13;98629.02;1741512;80;21886;-65
2022/06/23 00:27:39;;;;;;;1.87;1.77;;;;;;;17.70;69.16;98627.82;1731090;80;21061;-65
2022/06/23 00:30:24;;;;;;;4.53;1.52;;;;;;;17.73;69.27;98634.70;1740064;80;21593;-63
2022/06/23 00:32:50;;;;;;;4.40;1.87;;;;;;;17.71;69.13;98629.02;1729382;80;21801;-65
2022/06/23 00:35:17;;;;;;;2.75;1.90;;;;;;;17.73;69.17;98623.58;1726731;81;21444;-64
2022/06/23 00:37:49;;;;;;;2.00;1.90;;;;;;;17.72;69.25;98624.53;1726297;80;21467;-65
2022/06/23 00:40:20;;;;;;;3.30;1.90;;;;;;;17.69;69.25;98626.98;1736649;80;21535;-64
2022/06/23 00:43:01;;;;;;;3.67;1.90;;;;;;;17.69;69.14;98642.11;1734854;80;21006;-65
2022/06/23 00:45:49;;;;;;;2.35;1.75;;;;;;;17.68;69.34;98635.92;1733077;80;21801;-63
2022/06/23 00:48:42;;;;;;;4.28;2.15;;;;;;;17.68;69.36;98635.92;1732686;80;21531;-64
2022/06/23 00:51:17;;;;;;;2.25;1.60;;;;;;;17.73;69.37;98638.20;1732483;80;21748;-65
2022/06/23 00:54:07;;;;;;;3.33;1.90;;;;;;;17.77;69.23;98631.63;1732055;80;20986;-65
2022/06/23 00:57:06;;;;;;;2.70;1.65;;;;;;;17.80;69.09;98630.03;1728774;80;21543;-64
2022/06/23 00:59:47;;;;;;;6.92;2.10;;;;;;;17.84;68.97;98635.92;1733909;81;21758;-65
2022/06/23 01:02:25;;;;;;;4.17;2.05;;;;;;;17.82;69.07;98632.06;1722045;80;21610;-64
2022/06/23 01:05:00;;;;;;;2.50;1.98;;;;;;;17.79;69.13;98636.31;1738922;80;21479;-65
2022/06/23 01:08:15;;;;;;;2.25;2.02;;;;;;;17.79;69.26;98628.34;1744322;80;21464;-65
2022/06/23 01:11:03;;;;;;;3.15;2.00;;;;;;;17.80;69.49;98629.17;1722631;81;21542;-64
2022/06/23 01:13:44;;;;;;;3.92;2.02;;;;;;;17.76;70.28;98635.25;1728030;80;21792;-64
2022/06/23 01:16:24;;;;;;;3.02;2.10;;;;;;;17.71;70.50;98628.19;1732880;80;21628;-65
2022/06/23 01:19:11;;;;;;;2.17;1.98;;;;;;;17.70;70.92;98635.30;1718792;82;21527;-63
2022/06/23 01:21:49;;;;;;;4.80;2.15;;;;;;;17.67;71.42;98618.81;1723584;80;20979;-64
2022/06/23 01:24:42;;;;;;;5.20;2.40;;;;;;;17.62;71.82;98625.02;1724984;82;21574;-64
2022/06/23 01:27:38;;;;;;;3.02;2.55;;;;;;;17.55;72.67;98628.69;1721572;81;21752;-65
2022/06/23 01:30:07;;;;;;;4.08;2.55;;;;;;;17.44;73.13;98616.82;1727789;81;21619;-65
2022/06/23 01:32:49;;;;;;;4.28;2.55;;;;;;;17.37;73.80;98616.53;1718101;81;21056;-72
2022/06/23 01:35:32;;;;;;;3.27;2.83;;;;;;;17.36;74.14;98616.17;1709831;80;21574;-65
2022/06/23 01:38:03;;;;;;;4.17;2.37;;;;;;;17.36;74.87;98614.01;1710284;80;21595;-66
2022/06/23 01:40:43;;;;;;;3.90;2.72;;;;;;;17.35;74.90;98613.64;1725741;80;21786;-66
2022/06/23 01:43:20;;;;;;;3.37;2.33;;;;;;;17.31;75.27;98623.72;1720346;81;21607;-66
2022/06/23 01:46:08;;;;;;;4.83;2.85;;;;;;;17.28;75.66;98624.81;1710779;82;21580;-65
2022/06/23 01:48:51;;;;;;;4.05;2.65;;;;;;;17.25;76.22;98622.44;1717266;82;21516;-65
2022/06/23 01:51:42;;;;;;;4.85;3.00;;;;;;;17.22;76.38;98632.48;1727719;82;21591;-65
2022/06/23 01:54:25;;;;;;;3.65;2.70;;;;;;;17.19;76.76;98632.73;1719696;80;21872;-65
2022/06/23 01:57:16;;;;;;;4.33;2.72;;;;;;;17.16;77.40;98638.30;1699963;82;21421;-65
2022/06/23 01:59:56;;;;;;;3.00;2.70;;;;;;;17.13;77.77;98637.59;1717228;81;21513;-65
2022/06/23 02:02:51;;;;;;;2.70;2.50;;;;;;;17.11;77.86;98648.00;1715830;80;21489;-66
2022/06/23 02:05:50;;;;;;;4.00;2.70;;;;;;;17.12;78.12;98649.67;1714088;81;21622;-66
2022/06/23 02:09:00;;;;;;;3.27;2.98;;;;;;;17.14;78.15;98649.08;1715775;81;21595;-66
2022/06/23 02:11:46;;;;;;;3.20;2.85;;;;;;;17.14;78.57;98649.08;1721453;80;21457;-64
2022/06/23 02:14:33;;;;;;;3.42;2.65;;;;;;;17.06;79.13;98651.53;1726467;81;21634;-65
2022/06/23 02:17:29;;;;;;;3.02;2.67;;;;;;;17.06;78.81;98652.86;1734263;80;21535;-64
2022/06/23 02:20:00;;;;;;;2.80;2.30;;;;;;;17.16;79.02;98657.75;1728061;80;21527;-67
2022/06/23 02:22:35;;;;;;;6.97;2.65;;;;;;;17.19;79.04;98652.16;1732100;80;21456;-66
2022/06/23 02:25:29;;;;;;;3.37;2.70;;;;;;;17.23;79.02;98653.58;1730308;80;21584;-65
2022/06/23 02:28:25;;;;;;;7.22;2.95;;;;;;;17.22;79.23;98653.73;1735423;80;21550;-65
2022/06/23 02:30:56;;;;;;;3.92;2.47;;;;;;;17.20;79.31;98657.84;1732322;80;21591;-66
2022/06/23 02:33:33;;;;;;;4.47;2.72;;;;;;;17.22;79.23;98656.39;1739856;80;21611;-65
2022/06/23 02:36:24;;;;;;;3.20;2.70;;;;;;;17.29;79.14;98654.86;1735171;80;21788;-66
2022/06/23 02:38:55;;;;;;;4.40;2.67;;;;;;;17.32;79.08;98652.78;1729853;80;21594;-66
2022/06/23 02:41:42;;;;;;;3.12;2.85;;;;;;;17.26;79.08;98651.99;1735493;81;21055;-66
2022/06/23 02:44:25;;;;;;;;;;;;;;;17.29;79.10;98654.86;1733297;81;21571;-66
2022/06/23 02:47:12;;;;;;;4.60;2.58;;;;;;;17.30;78.95;98655.23;1720562;80;20477;-66
2022/06/23 02:49:50;;;;;;;3.72;2.77;;;;;;;17.34;78.76;98665.94;1724743;81;21850;-67
2022/06/23 02:52:38;;;;;;;;;;;;;;;17.35;78.74;98666.31;1725720;81;21451;-66
2022/06/23 02:55:16;;;;;;;5.33;2.98;;;;;;;17.77;80.21;98666.68;1731270;80;20474;-66
2022/06/23 02:58:00;;;;;;;3.02;2.72;;;;;;;18.26;74.89;98651.19;1728645;81;21611;-66
2022/06/23 03:00:46;;;;;;;4.47;2.98;;;;;;;18.38;74.11;98648.40;1732084;81;21468;-66
2022/06/23 03:03:41;;;;;;;3.85;3.10;;;;;;;18.45;73.53;98648.20;1726421;80;21785;-66
2022/06/23 03:06:43;;;;;;;4.37;3.05;;;;;;;18.46;73.16;98647.23;1727858;81;21030;-66
2022/06/23 03:09:20;;;;;;;5.05;2.75;;;;;;;18.46;72.88;98648.56;1728718;81;21590;-65
2022/06/23 03:12:13;;;;;;;5.10;2.90;;;;;;;18.43;72.86;98644.34;1725660;81;21508;-66
2022/06/23 03:14:52;;;;;;;3.15;2.62;;;;;;;18.48;72.74;98654.58;1724163;80;21521;-66
2022/06/23 03:17:24;;;;;;;;;;;;;;;18.48;72.61;98660.73;1712407;82;21879;-66
2022/06/23 03:20:39;;;;;;;4.50;2.55;;;;;;;18.49;72.56;98658.91;1709907;80;20509;-66
2022/06/23 03:23:29;;;;;;;4.85;3.00;;;;;;;18.48;72.35;98658.58;1714360;82;21532;-66
2022/06/23 03:26:21;;;;;;;5.40;3.17;;;;;;;18.47;72.19;98656.88;1712503;81;21106;-66
2022/06/23 03:29:33;;;;;;;7.17;3.17;;;;;;;18.44;72.21;98647.37;1716094;82;21019;-67
2022/06/23 03:32:23;;;;;;;3.42;3.12;;;;;;;18.45;71.96;98650.36;1703838;82;21809;-66
2022/06/23 03:34:55;;;;;;;3.17;2.87;;;;;;;18.49;72.06;98644.27;1723405;81;21441;-66
2022/06/23 03:37:49;;;;;;;3.95;2.60;;;;;;;18.51;71.89;98651.62;1722348;80;21587;-66
2022/06/23 03:43:35;;;;;;;4.03;3.08;;;;;;;18.63;71.81;98665.16;1712328;81;21522;-66
2022/06/23 03:46:19;;;;;;;3.98;2.50;;;;;;;18.67;71.79;98666.55;1715958;81;21914;-65
2022/06/23 03:49:09;;;;;;;3.37;2.35;;;;;;;18.73;71.80;98673.13;1718938;81;21485;-66
2022/06/23 03:51:47;;;;;;;4.70;2.80;;;;;;;18.74;71.51;98673.49;1722858;80;21528;-66
2022/06/23 03:54:23;;;;;;;5.35;2.42;;;;;;;18.79;71.46;98677.88;1716328;80;21598;-66
2022/06/23 03:57:01;;;;;;;4.37;2.72;;;;;;;18.81;71.41;98675.11;1708062;82;21635;-67
2022/06/23 03:59:33;;;;;;;6.33;3.10;;;;;;;18.82;71.05;98679.47;1724540;82;22009;-67
2022/06/23 04:02:23;;;;;;;4.40;2.83;;;;;;;18.76;71.33;98681.31;1726001;80;21526;-67
2022/06/23 04:05:13;;;;;;;2.92;2.72;;;;;;;18.75;71.46;98687.14;1719801;81;21544;-67
2022/06/23 04:07:59;;;;;;;3.15;2.83;;;;;;;18.80;71.56;98698.72;1727061;80;21520;-66
2022/06/23 04:10:36;;;;;;;2.62;2.42;;;;;;;18.83;71.50;98695.28;1725039;80;21581;-66
2022/06/23 04:13:20;;;;;;;4.10;2.70;;;;;;;18.85;71.68;98696.02;1729440;79;21827;-66
2022/06/23 04:15:49;;;;;;;3.05;2.62;;;;;;;18.92;71.30;98696.77;1704557;82;21407;-66
2022/06/23 04:18:22;;;;;;;2.77;2.50;;;;;;;18.95;71.13;98696.00;1709524;82;21435;-66
2022/06/23 04:20:54;;;;;;;4.40;2.45;;;;;;;19.01;70.93;98700.74;1714642;82;21495;-67
2022/06/23 04:23:34;;;;;;;3.83;2.42;;;;;;;19.07;70.63;98696.67;1726112;81;21559;-67
2022/06/23 04:26:24;;;;;;;5.28;2.83;;;;;;;19.01;70.37;98698.08;1716906;82;21926;-67
2022/06/23 04:29:09;;;;;;;6.25;2.80;;;;;;;19.03;70.55;98696.61;1711341;82;21506;-67
2022/06/23 04:31:40;;;;;;;4.95;2.62;;;;;;;19.06;70.47;98693.64;1713043;82;21014;-66
2022/06/23 04:34:16;;;;;;;5.40;2.27;;;;;;;19.11;70.39;98700.72;1720381;81;21123;-66
2022/06/23 04:36:43;;;;;;;4.87;2.47;;;;;;;19.16;70.20;98705.14;1716551;81;21002;-66
2022/06/23 04:39:40;;;;;;;4.75;2.30;;;;;;;19.21;70.20;98712.69;1719144;82;21799;-66
2022/06/23 04:42:21;;;;;;;5.83;3.10;;;;;;;19.26;69.95;98710.45;1708579;82;21053;-65
2022/06/23 04:44:50;;;;;;;3.12;2.77;;;;;;;19.26;69.67;98716.61;1663276;84;21471;-67
2022/06/23 04:47:27;;;;;;;3.95;2.37;;;;;;;19.21;69.33;98715.36;1717461;81;21435;-66
2022/06/23 04:50:13;;;;;;;3.35;2.70;;;;;;;19.22;69.50;98724.55;1711745;82;21486;-66
2022/06/23 04:52:52;;;;;;;3.98;2.83;;;;;;;19.28;69.49;98719.13;1706871;82;21913;-66
2022/06/23 04:55:25;;;;;;;2.83;2.55;;;;;;;19.34;69.51;98713.22;1724226;81;21432;-65
2022/06/23 04:57:57;;;;;;;3.22;2.83;;;;;;;19.38;69.49;98719.97;1716968;81;21041;-65
2022/06/23 05:00:31;;;;;;;4.62;2.72;;;;;;;19.44;69.42;98715.38;1715671;81;21483;-65
2022/06/23 05:03:02;;;;;;;4.90;2.80;;;;;;;19.53;68.95;98720.81;1724015;81;21017;-65
2022/06/23 05:05:34;;;;;;;3.05;2.75;;;;;;;19.65;68.97;98715.16;1710571;81;21881;-64
2022/06/23 05:08:07;;;;;;;4.25;2.47;;;;;;;19.79;68.98;98724.53;1710918;81;21625;-64
2022/06/23 05:10:43;;;;;;;4.55;2.70;;;;;;;19.91;68.93;98720.34;1708469;81;21574;-66
2022/06/23 05:13:21;;;;;;;4.03;2.60;;;;;;;19.98;68.37;98721.44;1718730;81;21533;-64
2022/06/23 05:16:07;;;;;;;2.90;2.70;;;;;;;20.02;68.33;98726.82;1716051;81;21471;-64
2022/06/23 05:18:47;;;;;;;3.92;3.10;;;;;;;20.03;67.98;98723.18;1735139;80;21843;-64
2022/06/23 05:21:22;;;;;;;3.15;2.58;;;;;;;19.98;67.92;98728.94;1723147;80;21527;-64
2022/06/23 05:23:59;;;;;;;2.92;2.70;;;;;;;19.98;68.11;98726.78;1716990;80;21465;-65
2022/06/23 05:26:34;;;;;;;4.87;2.60;;;;;;;20.04;68.03;98727.51;1715601;80;21512;-65
2022/06/23 05:29:24;;;;;;;4.03;2.90;;;;;;;20.06;67.66;98726.89;1712388;82;21666;-59
2022/06/23 05:31:54;;;;;;;4.33;2.77;;;;;;;20.10;67.45;98731.41;1715645;80;21995;-59
2022/06/23 05:34:24;;;;;;;3.17;2.80;;;;;;;20.11;67.40;98734.44;1722857;80;21662;-59
2022/06/23 05:37:30;;;;;;;2.72;2.52;;;;;;;20.12;67.67;98739.63;1716268;81;21539;-60
2022/06/23 05:40:27;;;;;;;3.35;2.67;;;;;;;20.14;67.77;98742.16;1684697;82;21009;-59
2022/06/23 05:42:55;;;;;;;3.05;2.40;;;;;;;20.24;67.29;98752.27;1708880;82;21614;-58
2022/06/23 05:45:26;;;;;;;2.87;2.67;;;;;;;20.30;66.95;98749.50;1720686;80;21824;-58
2022/06/23 05:47:54;;;;;;;4.90;2.75;;;;;;;20.36;67.02;98744.42;1713027;82;21654;-59
2022/06/23 05:50:29;;;;;;;4.17;2.85;;;;;;;20.41;66.96;98751.96;1718104;82;21468;-59
2022/06/23 05:53:06;;;;;;;6.87;2.83;;;;;;;20.46;66.82;98748.86;1721674;80;21930;-58
2022/06/23 05:55:53;;;;;;;5.08;2.22;;;;;;;20.60;66.83;98746.52;1730396;80;21542;-61
2022/06/23 05:58:35;;;;;;;3.52;2.40;;;;;;;20.84;66.18;98745.08;1735775;80;21768;-60
2022/06/23 06:01:24;;;;;;;3.35;2.33;;;;;;;21.04;65.28;98735.55;1718252;80;21548;-61
2022/06/23 06:03:55;;;;;;;7.40;2.67;;;;;;;21.14;64.27;98736.33;1724439;81;21465;-59
2022/06/23 06:06:22;;;;;;;5.85;2.62;;;;;;;21.23;63.19;98728.70;1722949;80;21566;-60
2022/06/23 06:09:36;;;;;;;4.12;2.52;;;;;;;21.33;63.89;98730.77;1723704;80;21436;-63
2022/06/23 06:11:26;;;;;;;3.75;3.12;;;;;;;21.51;64.46;98739.27;1697133;81;21818;-60
2022/06/23 06:13:53;;;;;;;4.62;3.00;;;;;;;21.67;63.57;98737.20;1716690;80;21078;-60
2022/06/23 06:16:20;;;;;;;3.98;3.22;;;;;;;21.76;63.02;98734.91;1728080;80;20979;-60
2022/06/23 06:18:46;;;;;;;5.55;2.80;;;;;;;21.67;61.93;98740.71;1734268;80;21473;-59
2022/06/23 06:21:16;;;;;;;3.95;2.50;;;;;;;21.65;62.65;98736.52;1725923;80;21627;-59
2022/06/23 06:24:17;;;;;;;3.02;2.80;;;;;;;21.63;62.60;98746.55;1712224;82;21816;-60
2022/06/23 06:26:47;;;;;;;3.92;2.65;;;;;;;21.57;62.19;98754.70;1723056;81;21020;-59
2022/06/23 06:29:23;;;;;;;3.02;2.40;;;;;;;21.56;62.29;98750.34;1718105;81;21567;-60
2022/06/23 06:32:14;;;;;;;2.80;2.60;;;;;;;21.59;62.52;98746.02;1727073;80;21427;-60
2022/06/23 06:34:46;;;;;;;3.35;2.42;;;;;;;21.59;62.37;98754.05;1722285;81;21131;-62
2022/06/23 06:37:13;;;;;;;3.25;2.90;;;;;;;21.52;62.73;98753.82;1720585;80;21560;-59
2022/06/23 06:39:45;;;;;;;;;;;;;;;21.52;62.70;98751.66;1720295;82;21176;-61
2022/06/23 06:42:23;;;;;;;5.17;2.70;;;;;;;21.53;62.55;98757.33;1720572;80;20503;-60
2022/06/23 06:44:51;;;;;;;;;;;;;;;21.62;62.35;98755.55;1720799;81;21456;-60
2022/06/23 06:47:31;;;;;;;3.52;2.83;;;;;;;21.69;62.33;98752.09;1713331;81;20537;-61
2022/06/23 06:50:02;;;;;;;3.67;3.05;;;;;;;21.74;61.93;98755.13;1730457;81;21877;-61
2022/06/23 06:52:30;;;;;;;5.28;2.87;;;;;;;21.72;61.23;98753.12;1719127;82;21543;-61
2022/06/23 06:55:15;;;;;;;5.30;3.05;;;;;;;21.65;61.46;98760.60;1723592;81;21000;-61
2022/06/23 06:57:52;;;;;;;4.40;3.40;;;;;;;21.62;61.75;98762.24;1709564;81;22236;-61
2022/06/23 07:00:42;;;;;;;6.65;2.80;;;;;;;21.60;62.20;98770.92;1719213;82;21460;-60
2022/06/23 07:03:11;;;;;;;4.15;2.62;;;;;;;21.61;62.05;98774.78;1724083;81;22018;-61
2022/06/23 07:05:55;;;;;;;4.75;2.95;;;;;;;21.62;61.99;98775.61;1700308;81;21461;-61
2022/06/23 07:08:43;;;;;;;6.30;3.02;;;;;;;21.58;61.86;98784.45;1717375;82;21546;-61
2022/06/23 07:11:11;;;;;;;;;;;;;;;21.51;62.12;98790.08;1725620;82;21512;-61
2022/06/23 07:13:50;;;;;;;7.65;2.80;;;;;;;21.51;62.46;98792.75;1719222;82;20472;-62
2022/06/23 07:16:31;;;;;;;6.90;2.58;;;;;;;21.46;62.62;98799.09;1712242;82;21784;-61
2022/06/23 07:19:12;;;;;;;2.72;2.52;;;;;;;21.47;62.77;98808.27;1724044;82;20970;-60
2022/06/23 07:21:44;;;;;;;2.98;2.67;;;;;;;21.64;63.33;98822.59;1719511;81;21454;-61
2022/06/23 07:24:31;;;;;;;3.65;2.87;;;;;;;21.64;63.33;98822.59;1712671;81;21318;-62
2022/06/23 07:27:07;;;;;;;3.77;2.45;;;;;;;21.65;62.60;98818.94;1717966;82;21483;-61
2022/06/23 07:29:55;;;;;;;2.87;2.67;;;;;;;21.65;62.14;98821.61;1706732;82;21581;-64
2022/06/23 07:32:34;;;;;;;;;;;;;;;21.64;61.59;98834.63;1707617;81;21009;-60
2022/06/23 07:35:36;;;;;;;6.28;2.92;;;;;;;21.54;61.30;98827.22;1720732;81;20149;-62
2022/06/23 07:38:14;;;;;;;3.58;2.50;;;;;;;21.50;61.73;98833.88;1712517;81;21558;-63
2022/06/23 07:40:55;;;;;;;4.37;2.40;;;;;;;21.63;61.02;98832.14;1713693;82;20951;-62
2022/06/23 07:43:32;;;;;;;5.10;2.55;;;;;;;21.67;60.61;98835.67;1719032;82;21973;-62
2022/06/23 07:46:00;;;;;;;3.75;2.58;;;;;;;21.69;60.56;98839.53;1713910;82;21415;-64
2022/06/23 07:48:30;;;;;;;4.75;2.45;;;;;;;21.71;60.71;98847.73;1715558;81;21073;-61
2022/06/23 07:50:59;;;;;;;3.60;2.58;;;;;;;21.76;60.61;98847.28;1718653;81;21590;-61
2022/06/23 07:53:39;;;;;;;5.42;2.70;;;;;;;21.78;60.82;98840.77;1712683;81;21411;-62
2022/06/23 07:56:08;;;;;;;5.72;2.37;;;;;;;21.86;60.11;98843.98;1651695;85;21772;-62
2022/06/23 07:58:39;;;;;;;3.30;2.77;;;;;;;21.92;60.32;98848.70;1638654;85;21581;-62
2022/06/23 08:01:11;;;;;;;3.45;2.50;;;;;;;21.96;59.88;98850.56;1715884;82;21056;-62
2022/06/23 08:04:20;;;;;;;3.25;2.95;;;;;;;22.01;59.84;98850.94;1716392;82;21598;-60
2022/06/23 08:06:47;;;;;;;3.85;2.83;;;;;;;22.04;59.76;98853.31;1716266;81;21424;-60
2022/06/23 08:09:31;;;;;;;5.55;2.62;;;;;;;22.03;59.42;98849.45;1714543;81;21780;-60
2022/06/23 08:18:01;;;;;;;4.28;2.90;;;;;;;21.92;60.68;98861.25;1629385;86;21549;-59
2022/06/23 08:20:28;;;;;;;5.22;2.72;;;;;;;21.99;59.95;98871.67;1629615;87;21532;-59
2022/06/23 08:22:55;;;;;;;6.35;3.25;;;;;;;21.99;59.95;98871.67;1628356;87;22089;-60
2022/06/23 08:25:22;;;;;;;4.67;3.02;;;;;;;21.92;60.35;98873.30;1627908;86;21645;-61
2022/06/23 08:27:52;;;;;;;5.50;3.00;;;;;;;22.03;60.14;98874.37;1618338;86;21637;-61
2022/06/23 08:30:17;;;;;;;4.15;2.80;;;;;;;22.14;59.98;98874.10;1607082;87;21518;-62
2022/06/23 08:32:47;;;;;;;5.27;2.87;;;;;;;22.14;59.98;98874.10;1629337;86;21512;-62
2022/06/23 08:35:31;;;;;;;2.70;2.50;;;;;;;22.21;59.80;98873.45;1620863;86;21934;-64
2022/06/23 08:38:21;;;;;;;3.98;2.33;;;;;;;22.27;59.65;98872.87;1619159;86;21650;-63
2022/06/23 08:41:11;;;;;;;4.25;2.55;;;;;;;22.34;59.20;98876.09;1622693;86;21700;-65
2022/06/23 08:46:45;;;;;;;3.20;2.72;;;;;;;22.51;58.13;98876.18;1649956;85;21435;-65
2022/06/23 08:49:38;;;;;;;4.22;2.90;;;;;;;22.30;58.76;98887.27;1640317;85;21907;-66
2022/06/23 08:52:19;;;;;;;3.55;2.30;;;;;;;22.35;59.05;98881.77;1647285;84;21572;-65
2022/06/23 08:54:51;;;;;;;3.00;2.70;;;;;;;22.58;58.90;98889.24;1653540;84;21508;-66
2022/06/23 08:57:42;;;;;;;6.42;2.80;;;;;;;22.81;58.11;98885.98;1640605;85;21053;-66
2022/06/23 09:00:15;;;;;;;4.12;3.25;;;;;;;22.93;56.81;98880.16;1609034;86;21637;-65
2022/06/23 09:03:14;;;;;;;5.58;2.83;;;;;;;23.03;56.64;98884.55;1638656;85;21856;-67
2022/06/23 09:06:08;;;;;;;4.47;2.60;;;;;;;23.11;56.41;98887.27;1650613;85;21433;-65
2022/06/23 09:09:11;;;;;;;3.50;2.52;;;;;;;23.30;56.30;98902.20;1645299;85;21446;-65
2022/06/23 09:12:02;;;;;;;2.92;2.30;;;;;;;23.51;55.19;98894.53;1625626;85;21475;-64
2022/06/23 09:15:08;;;;;;;5.03;2.87;;;;;;;23.51;55.19;98894.53;1643401;85;21568;-66
2022/06/23 09:17:55;;;;;;;5.00;2.60;;;;;;;23.62;55.62;98905.45;1648611;85;21868;-65
2022/06/23 09:20:37;;;;;;;5.17;2.40;;;;;;;23.71;55.64;98907.12;1641202;85;29076;-66
2022/06/23 09:23:18;;;;;;;3.58;2.67;;;;;;;23.78;53.61;98914.50;1647211;85;21528;-64
2022/06/23 09:26:11;;;;;;;5.62;2.60;;;;;;;23.78;53.61;98914.50;1649491;85;21064;-67
2022/06/23 09:29:04;;;;;;;2.55;2.35;;;;;;;23.71;53.46;98912.50;1638279;85;21026;-65
2022/06/23 09:31:58;;;;;;;2.65;2.00;;;;;;;23.78;53.04;98915.33;1610699;84;21554;-64
2022/06/23 09:35:04;;;;;;;3.50;2.35;;;;;;;23.78;53.04;98915.33;1649582;84;21520;-66
2022/06/23 09:38:16;;;;;;;3.72;3.12;;;;;;;23.94;54.23;98911.84;1646377;85;21556;-66
2022/06/23 09:41:00;;;;;;;6.50;2.62;;;;;;;24.22;53.35;98911.45;1595956;87;21493;-65
2022/06/23 09:43:50;;;;;;;7.10;2.70;;;;;;;24.37;52.94;98914.27;1588795;88;21557;-65
2022/06/23 09:46:28;;;;;;;4.67;2.60;;;;;;;24.52;52.59;98913.91;1620165;87;21837;-66
2022/06/23 09:49:03;;;;;;;6.10;2.30;;;;;;;24.66;52.25;98922.61;1653350;84;21505;-66
2022/06/23 09:51:57;;;;;;;2.67;2.45;;;;;;;24.67;51.64;98924.27;1629229;86;21597;-66
2022/06/23 09:54:52;;;;;;;8.70;2.10;;;;;;;24.63;51.71;98931.00;1652275;84;21564;-65
2022/06/23 09:57:43;;;;;;;2.30;2.10;;;;;;;24.26;50.40;98935.13;1644044;84;21414;-66
2022/06/23 10:00:19;;;;;;;4.22;2.27;;;;;;;24.26;50.40;98935.13;1614719;88;22028;-65
2022/06/23 10:03:07;;;;;;;3.00;2.67;;;;;;;24.15;50.90;98929.25;1640264;85;21517;-65
2022/06/23 10:05:52;;;;;;;;;;;;;;;24.02;50.75;98934.65;1634206;86;21565;-65
2022/06/23 10:08:33;;;;;;;7.80;2.20;;;;;;;23.87;50.97;98937.69;1632238;86;20440;-66
2022/06/23 10:11:29;;;;;;;4.15;2.50;;;;;;;23.69;51.41;98944.00;1625031;86;21694;-65
2022/06/23 10:14:24;;;;;;;7.47;2.70;;;;;;;23.54;52.05;98948.86;1650994;85;21815;-67
2022/06/23 10:17:09;;;;;;;7.55;2.35;;;;;;;23.33;52.82;98934.91;1650494;85;21509;-66
2022/06/23 10:20:05;;;;;;;6.97;2.80;;;;;;;23.11;53.08;98953.81;1643116;85;21094;-66
2022/06/23 10:22:41;;;;;;;7.00;2.17;;;;;;;22.95;54.27;98964.44;1648214;85;20997;-65
2022/06/23 10:25:54;;;;;;;3.27;2.20;;;;;;;23.02;56.78;98974.86;1648833;85;21575;-65
2022/06/23 10:29:06;;;;;;;4.33;2.30;;;;;;;23.02;56.78;98974.86;1653427;83;21874;-65
2022/06/23 10:31:57;;;;;;;2.17;2.02;;;;;;;23.30;57.36;98971.94;1651820;85;21666;-66
2022/06/23 10:34:35;;;;;;;6.55;2.22;;;;;;;23.30;57.36;98971.94;1652470;85;21494;-67
2022/06/23 10:37:36;;;;;;;3.40;2.42;;;;;;;23.51;56.50;98971.50;1644516;85;21434;-65
2022/06/23 10:40:23;;;;;;;2.60;2.40;;;;;;;24.08;55.78;98978.27;1642691;85;21489;-65
2022/06/23 10:43:26;;;;;;;3.47;2.55;;;;;;;24.32;54.53;98981.09;1649567;85;21806;-66
2022/06/23 10:46:03;;;;;;;4.95;2.58;;;;;;;24.32;54.53;98981.09;1636442;86;21480;-65
2022/06/23 10:48:56;;;;;;;3.40;2.50;;;;;;;24.42;53.69;98981.77;1637501;85;21438;-65
2022/06/23 10:51:54;;;;;;;5.42;2.42;;;;;;;24.45;53.46;98984.95;1640794;85;21755;-66
2022/06/23 10:54:42;;;;;;;4.75;2.47;;;;;;;24.41;52.84;98984.96;1627628;87;21400;-66
2022/06/23 10:57:29;;;;;;;;;;;;;;;24.28;52.74;98989.51;1654956;85;21883;-65
2022/06/23 11:00:26;;;;;;;4.15;2.02;;;;;;;24.14;52.58;98993.38;1659531;84;20184;-66
2022/06/23 11:03:07;;;;;;;2.72;2.25;;;;;;;24.00;53.21;98995.73;1655656;84;21458;-65
2022/06/23 11:06:16;;;;;;;2.02;1.90;;;;;;;23.91;52.96;98996.73;1656866;85;21588;-65
2022/06/23 11:08:59;;;;;;;6.87;2.20;;;;;;;23.70;53.19;98996.68;1645253;84;21434;-65
2022/06/23 11:11:52;;;;;;;3.47;2.33;;;;;;;23.70;53.19;98996.68;1662495;84;21791;-64
2022/06/23 11:14:51;;;;;;;3.25;2.20;;;;;;;23.76;53.24;99009.94;1660579;84;20963;-64
2022/06/23 11:17:53;;;;;;;3.37;2.20;;;;;;;23.81;53.45;99009.45;1657926;85;21434;-65
2022/06/23 11:20:40;;;;;;;4.33;2.50;;;;;;;23.93;54.00;99013.51;1620342;84;21574;-66
2022/06/23 11:23:36;;;;;;;3.87;1.98;;;;;;;23.93;54.00;99013.51;1654694;85;21630;-66
2022/06/23 11:26:23;;;;;;;4.28;2.17;;;;;;;24.10;53.34;99019.21;1658937;84;21933;-66
2022/06/23 11:29:08;;;;;;;;;;;;;;;24.14;53.46;99018.37;1657922;85;21434;-66
2022/06/23 11:31:50;;;;;;;3.37;2.10;;;;;;;24.14;52.95;99024.26;1660202;84;20419;-65
2022/06/23 11:34:45;;;;;;;3.10;2.02;;;;;;;24.16;52.40;99025.76;1614503;87;21007;-65
2022/06/23 11:37:50;;;;;;;5.28;2.20;;;;;;;24.15;51.01;99039.34;1630565;87;21582;-66
2022/06/23 11:40:51;;;;;;;9.48;2.17;;;;;;;24.05;50.86;99051.60;1632535;86;21763;-66
2022/06/23 11:43:46;;;;;;;6.58;2.02;;;;;;;23.80;50.22;99048.89;1641641;85;21427;-65
2022/06/23 11:46:29;;;;;;;2.47;2.15;;;;;;;23.68;50.64;99040.28;1633774;85;21575;-65
2022/06/23 11:49:27;;;;;;;2.55;1.90;;;;;;;23.56;50.45;99044.78;1642210;86;21537;-64
2022/06/23 11:52:37;;;;;;;5.95;2.02;;;;;;;23.45;50.93;99045.91;1644840;85;21446;-66
2022/06/23 11:55:32;;;;;;;6.60;1.90;;;;;;;23.43;50.92;99046.58;1579148;88;21860;-64
2022/06/23 11:58:26;;;;;;;3.80;2.35;;;;;;;23.41;51.08;99050.76;1647359;85;21585;-65
2022/06/23 12:01:13;;;;;;;5.70;1.98;;;;;;;23.37;51.00;99049.91;1643702;85;21475;-65
2022/06/23 12:04:05;;;;;;;1.87;1.77;;;;;;;23.34;50.42;99057.80;1638888;86;25111;-65
2022/06/23 12:06:52;;;;;;;8.60;2.10;;;;;;;23.34;50.66;99055.12;1637109;86;21513;-65
2022/06/23 12:09:28;;;;;;;4.75;2.22;;;;;;;23.35;50.83;99063.99;1633577;86;21419;-66
2022/06/23 12:11:56;;;;;;;2.65;2.05;;;;;;;23.29;50.47;99070.34;1641122;85;21616;-66
2022/06/23 12:14:23;;;;;;;7.70;2.08;;;;;;;23.29;50.47;99070.34;1643608;85;21526;-67
2022/06/23 12:16:58;;;;;;;3.67;2.40;;;;;;;23.31;50.47;99072.86;1637656;85;21490;-67
2022/06/23 12:19:42;;;;;;;5.12;1.60;;;;;;;23.30;50.14;99068.48;1640324;85;21544;-65
2022/06/23 12:22:20;;;;;;;6.17;2.10;;;;;;;23.35;50.04;99076.06;1647267;85;21929;-66
2022/06/23 12:24:59;;;;;;;2.00;1.80;;;;;;;23.35;50.04;99076.06;1625873;86;21627;-66
2022/06/23 12:27:39;;;;;;;6.03;1.80;;;;;;;23.36;49.84;99058.48;1646248;84;21506;-65
2022/06/23 12:31:48;;;;;;;3.98;1.90;;;;;;;22.78;52.12;99076.08;1787118;79;23273;-65
2022/06/23 12:34:57;;;;;;;2.15;1.98;;;;;;;23.40;48.82;99063.84;1762403;80;21699;-65
2022/06/23 12:37:49;;;;;;;2.98;1.80;;;;;;;23.40;48.82;99063.84;1750766;79;21800;-66
2022/06/23 12:40:33;;;;;;;9.58;1.98;;;;;;;23.53;48.59;99064.73;1760181;80;21533;-65
2022/06/23 12:43:35;;;;;;;5.83;2.00;;;;;;;23.68;48.49;99063.09;1763615;80;21604;-60
2022/06/23 12:46:28;;;;;;;4.10;2.05;;;;;;;23.85;48.13;99067.20;1756321;80;21493;-62
2022/06/23 12:49:03;;;;;;;4.08;1.87;;;;;;;23.94;47.62;99080.11;1756529;80;21522;-62
2022/06/23 12:52:03;;;;;;;3.35;1.80;;;;;;;23.98;47.34;99070.72;1746130;80;22144;-62
2022/06/23 12:55:12;;;;;;;3.67;2.22;;;;;;;24.02;47.47;99078.80;1762362;80;21502;-61
2022/06/23 12:58:18;;;;;;;3.42;2.02;;;;;;;24.02;47.79;99077.46;1770916;80;21577;-63
2022/06/23 13:00:51;;;;;;;5.30;1.80;;;;;;;24.02;47.79;99077.46;1760159;79;21482;-64
2022/06/23 13:03:38;;;;;;;4.17;1.75;;;;;;;24.01;47.14;99083.31;1751019;80;21589;-63
2022/06/23 13:06:29;;;;;;;4.55;1.98;;;;;;;24.10;46.71;99078.29;1761534;79;21817;-63
2022/06/23 13:09:19;;;;;;;4.92;1.90;;;;;;;24.10;46.71;99078.29;1761061;80;21487;-64